Wetterdaten: Woche 23.12.13 - 29.12.13 (KW52)
Datum Zeit Temperatur Luftfeuchte Luftdruck Niederschlag Windrichtung Sonnenschein Solar Wind
23.12.2013 00:00 6,2 C 88 % 1022,6 hPa 0,0 l/m SW 0,00 h 0 W/m 13,8 km/h (3 Bft)
23.12.2013 01:00 7,0 C 85 % 1022,2 hPa 0,0 l/m W-SW 0,00 h 0 W/m 15,8 km/h (3 Bft)
23.12.2013 02:00 7,2 C 84 % 1022,3 hPa 0,0 l/m SW 0,00 h 0 W/m 15,0 km/h (3 Bft)
23.12.2013 03:00 7,4 C 85 % 1022,7 hPa 0,0 l/m W-SW 0,00 h 0 W/m 16,1 km/h (3 Bft)
23.12.2013 04:00 7,5 C 86 % 1022,7 hPa 0,0 l/m SW 0,00 h 0 W/m 12,4 km/h (3 Bft)
23.12.2013 05:00 6,7 C 87 % 1022,6 hPa 0,0 l/m SW 0,00 h 0 W/m 12,0 km/h (2 Bft)
23.12.2013 06:00 5,9 C 91 % 1022,6 hPa 0,0 l/m SW 0,00 h 0 W/m 11,3 km/h (2 Bft)
23.12.2013 07:00 5,8 C 93 % 1022,2 hPa 0,0 l/m SW 0,00 h 0 W/m 10,6 km/h (2 Bft)
23.12.2013 08:00 5,7 C 94 % 1021,9 hPa 0,0 l/m SW 0,00 h 12 W/m 12,5 km/h (3 Bft)
23.12.2013 09:00 6,6 C 92 % 1021,9 hPa 0,0 l/m SW 0,00 h 41 W/m 15,7 km/h (3 Bft)
23.12.2013 10:00 7,3 C 89 % 1021,7 hPa 0,0 l/m SW 0,17 h 114 W/m 12,5 km/h (3 Bft)
23.12.2013 11:00 9,0 C 82 % 1021,0 hPa 0,0 l/m SW 0,67 h 203 W/m 15,6 km/h (3 Bft)
23.12.2013 12:00 9,7 C 79 % 1019,9 hPa 0,0 l/m W-SW 0,83 h 269 W/m 16,0 km/h (3 Bft)
23.12.2013 13:00 10,6 C 75 % 1019,0 hPa 0,0 l/m W-SW 1,00 h 283 W/m 15,6 km/h (3 Bft)
23.12.2013 14:00 10,4 C 74 % 1018,3 hPa 0,0 l/m SW 1,00 h 195 W/m 15,3 km/h (3 Bft)
23.12.2013 15:00 9,4 C 78 % 1017,4 hPa 0,0 l/m SW 0,83 h 77 W/m 10,1 km/h (2 Bft)
23.12.2013 16:00 8,0 C 80 % 1017,0 hPa 0,0 l/m SW 0,00 h 9 W/m 0,9 km/h (0 Bft)
23.12.2013 17:00 6,0 C 83 % 1016,1 hPa 0,0 l/m N 0,00 h 0 W/m 0,8 km/h (0 Bft)
23.12.2013 18:00 4,4 C 87 % 1015,5 hPa 0,0 l/m N 0,00 h 0 W/m 0,0 km/h (0 Bft)
23.12.2013 19:00 2,8 C 88 % 1015,0 hPa 0,0 l/m N 0,00 h 0 W/m 0,0 km/h (0 Bft)
23.12.2013 20:00 1,8 C 90 % 1014,7 hPa 0,0 l/m N 0,00 h 0 W/m 0,0 km/h (0 Bft)
23.12.2013 21:00 1,1 C 91 % 1013,8 hPa 0,0 l/m N 0,00 h 0 W/m 0,0 km/h (0 Bft)
23.12.2013 22:00 0,4 C 92 % 1013,0 hPa 0,0 l/m N 0,00 h 0 W/m 0,4 km/h (0 Bft)
23.12.2013 23:00 0,0 C 93 % 1012,1 hPa 0,0 l/m N 0,00 h 0 W/m 0,5 km/h (0 Bft)
24.12.2013 00:00 -0,3 C 94 % 1011,4 hPa 0,0 l/m N 0,00 h 0 W/m 1,1 km/h (0 Bft)
24.12.2013 01:00 -0,7 C 95 % 1010,7 hPa 0,0 l/m N 0,00 h 0 W/m 0,5 km/h (0 Bft)
24.12.2013 02:00 -1,2 C 95 % 1010,3 hPa 0,0 l/m N 0,00 h 0 W/m 0,7 km/h (0 Bft)
24.12.2013 03:00 -1,6 C 95 % 1009,9 hPa 0,0 l/m N 0,00 h 0 W/m 0,0 km/h (0 Bft)
24.12.2013 04:00 -1,7 C 95 % 1009,2 hPa 0,0 l/m N 0,00 h 0 W/m 0,1 km/h (0 Bft)
24.12.2013 05:00 -2,0 C 95 % 1008,5 hPa 0,0 l/m N 0,00 h 0 W/m 0,3 km/h (0 Bft)
24.12.2013 06:00 -2,1 C 96 % 1008,2 hPa 0,0 l/m N 0,00 h 0 W/m 0,1 km/h (0 Bft)
24.12.2013 07:00 -1,8 C 96 % 1008,1 hPa 0,0 l/m N 0,00 h 5 W/m 0,7 km/h (0 Bft)
24.12.2013 08:00 -1,8 C 97 % 1007,9 hPa 0,0 l/m N 0,00 h 17 W/m 0,8 km/h (0 Bft)
24.12.2013 09:00 -1,3 C 97 % 1007,6 hPa 0,0 l/m N 0,00 h 41 W/m 1,3 km/h (1 Bft)
24.12.2013 10:00 -0,5 C 98 % 1007,2 hPa 0,0 l/m N 0,00 h 46 W/m 0,1 km/h (0 Bft)
24.12.2013 11:00 0,8 C 98 % 1006,3 hPa 0,0 l/m N 0,00 h 86 W/m 0,3 km/h (0 Bft)
24.12.2013 12:00 3,3 C 96 % 1005,1 hPa 0,0 l/m N 0,33 h 173 W/m 1,3 km/h (1 Bft)
24.12.2013 13:00 6,5 C 85 % 1004,0 hPa 0,0 l/m SW 1,00 h 249 W/m 6,3 km/h (2 Bft)
24.12.2013 14:00 9,5 C 67 % 1003,0 hPa 0,0 l/m SW 0,75 h 149 W/m 17,6 km/h (3 Bft)
24.12.2013 15:00 10,7 C 56 % 1002,3 hPa 0,0 l/m SW 0,00 h 42 W/m 32,9 km/h (5 Bft)
24.12.2013 16:00 11,4 C 51 % 1001,9 hPa 0,0 l/m SW 0,00 h 11 W/m 37,4 km/h (5 Bft)
24.12.2013 17:00 11,4 C 51 % 1001,4 hPa 0,0 l/m SW 0,00 h 0 W/m 29,4 km/h (5 Bft)
24.12.2013 18:00 10,5 C 55 % 1000,8 hPa 0,0 l/m SW 0,00 h 0 W/m 15,4 km/h (3 Bft)
24.12.2013 19:00 10,1 C 56 % 1000,4 hPa 0,0 l/m SW 0,00 h 0 W/m 15,4 km/h (3 Bft)
24.12.2013 20:00 9,3 C 59 % 999,7 hPa 0,0 l/m S-SW 0,00 h 0 W/m 11,4 km/h (2 Bft)
24.12.2013 21:00 9,5 C 57 % 999,0 hPa 0,0 l/m SW 0,00 h 0 W/m 18,6 km/h (3 Bft)
24.12.2013 22:00 10,6 C 53 % 998,1 hPa 0,0 l/m SW 0,00 h 0 W/m 21,2 km/h (4 Bft)
24.12.2013 23:00 11,1 C 51 % 996,8 hPa 0,0 l/m SW 0,00 h 0 W/m 18,1 km/h (3 Bft)
25.12.2013 00:00 11,2 C 51 % 995,9 hPa 0,0 l/m SW 0,00 h 0 W/m 19,6 km/h (3 Bft)
25.12.2013 01:00 11,9 C 50 % 995,1 hPa 0,0 l/m SW 0,00 h 0 W/m 21,7 km/h (4 Bft)
25.12.2013 02:00 12,0 C 50 % 994,2 hPa 0,0 l/m SW 0,00 h 0 W/m 21,3 km/h (4 Bft)
25.12.2013 03:00 12,5 C 47 % 993,1 hPa 0,0 l/m SW 0,00 h 0 W/m 31,5 km/h (5 Bft)
25.12.2013 04:00 13,1 C 45 % 991,9 hPa 0,0 l/m SW 0,00 h 0 W/m 30,5 km/h (5 Bft)
25.12.2013 05:00 13,3 C 44 % 991,6 hPa 0,0 l/m W-SW 0,00 h 0 W/m 28,8 km/h (5 Bft)
25.12.2013 06:00 13,7 C 42 % 992,4 hPa 0,0 l/m SW 0,00 h 0 W/m 33,1 km/h (5 Bft)
25.12.2013 07:00 12,1 C 46 % 992,1 hPa 0,0 l/m W-SW 0,00 h 0 W/m 16,0 km/h (3 Bft)
25.12.2013 08:00 10,8 C 49 % 991,5 hPa 0,0 l/m SW 0,00 h 10 W/m 9,0 km/h (2 Bft)
25.12.2013 09:00 10,7 C 52 % 991,4 hPa 0,0 l/m W-NW 0,00 h 41 W/m 12,2 km/h (2 Bft)
25.12.2013 10:00 10,1 C 58 % 991,4 hPa 0,0 l/m W-NW 0,00 h 22 W/m 4,1 km/h (1 Bft)
25.12.2013 11:00 8,9 C 63 % 990,9 hPa 0,0 l/m W-NW 0,00 h 43 W/m 3,2 km/h (1 Bft)
25.12.2013 12:00 8,8 C 65 % 990,6 hPa 0,0 l/m NW 0,00 h 63 W/m 6,0 km/h (2 Bft)
25.12.2013 13:00 9,0 C 65 % 990,6 hPa 0,0 l/m N-NW 0,08 h 81 W/m 9,8 km/h (2 Bft)
25.12.2013 14:00 8,4 C 74 % 991,2 hPa 0,0 l/m N-NW 0,00 h 62 W/m 13,7 km/h (3 Bft)
25.12.2013 15:00 7,7 C 81 % 992,5 hPa 0,0 l/m N-NW 0,00 h 23 W/m 10,9 km/h (2 Bft)
25.12.2013 16:00 6,7 C 84 % 993,6 hPa 0,0 l/m W-NW 0,00 h 9 W/m 20,2 km/h (4 Bft)
25.12.2013 17:00 5,7 C 87 % 993,9 hPa 0,0 l/m W 0,00 h 0 W/m 6,3 km/h (2 Bft)
25.12.2013 18:00 5,3 C 89 % 993,9 hPa 0,2 l/m N 0,00 h 0 W/m 1,6 km/h (1 Bft)
25.12.2013 19:00 5,1 C 92 % 994,0 hPa 0,4 l/m N 0,00 h 0 W/m 1,7 km/h (1 Bft)
25.12.2013 20:00 4,8 C 93 % 994,0 hPa 1,4 l/m W 0,00 h 0 W/m 3,2 km/h (1 Bft)
25.12.2013 21:00 4,4 C 94 % 993,5 hPa 0,8 l/m W 0,00 h 0 W/m 4,7 km/h (1 Bft)
25.12.2013 22:00 4,1 C 95 % 993,0 hPa 0,6 l/m W 0,00 h 0 W/m 1,1 km/h (0 Bft)
25.12.2013 23:00 3,9 C 95 % 992,5 hPa 0,6 l/m N 0,00 h 0 W/m 0,0 km/h (0 Bft)
26.12.2013 00:00 3,9 C 96 % 991,6 hPa 0,4 l/m W 0,00 h 0 W/m 3,5 km/h (1 Bft)
26.12.2013 01:00 3,9 C 97 % 990,4 hPa 0,0 l/m NW 0,00 h 0 W/m 6,7 km/h (2 Bft)
26.12.2013 02:00 3,9 C 97 % 989,7 hPa 0,0 l/m NW 0,00 h 0 W/m 6,4 km/h (2 Bft)
26.12.2013 03:00 3,9 C 97 % 988,9 hPa 0,0 l/m N 0,00 h 0 W/m 7,9 km/h (2 Bft)
26.12.2013 04:00 3,8 C 97 % 988,3 hPa 0,0 l/m N-NO 0,00 h 0 W/m 10,5 km/h (2 Bft)
26.12.2013 05:00 3,7 C 98 % 988,3 hPa 0,0 l/m N-NO 0,00 h 0 W/m 8,8 km/h (2 Bft)
26.12.2013 06:00 3,7 C 98 % 988,9 hPa 0,0 l/m N 0,00 h 0 W/m 6,3 km/h (2 Bft)
26.12.2013 07:00 3,7 C 98 % 989,5 hPa 0,0 l/m N 0,00 h 0 W/m 2,4 km/h (1 Bft)
26.12.2013 08:00 3,9 C 98 % 989,9 hPa 0,4 l/m N 0,00 h 5 W/m 4,1 km/h (1 Bft)
26.12.2013 09:00 4,0 C 98 % 991,1 hPa 1,4 l/m N-NW 0,00 h 10 W/m 5,6 km/h (1 Bft)
26.12.2013 10:00 3,7 C 98 % 992,4 hPa 1,2 l/m W-NW 0,00 h 16 W/m 10,1 km/h (2 Bft)
26.12.2013 11:00 2,7 C 98 % 993,1 hPa 2,0 l/m W-NW 0,00 h 28 W/m 10,8 km/h (2 Bft)
26.12.2013 12:00 1,6 C 97 % 993,8 hPa 1,4 l/m W-SW 0,00 h 24 W/m 6,0 km/h (2 Bft)
26.12.2013 13:00 1,2 C 97 % 994,3 hPa 0,8 l/m SW 0,00 h 35 W/m 8,0 km/h (2 Bft)
26.12.2013 14:00 1,2 C 97 % 995,3 hPa 0,4 l/m SW 0,00 h 17 W/m 9,1 km/h (2 Bft)
26.12.2013 15:00 1,0 C 97 % 996,7 hPa 0,2 l/m SW 0,00 h 8 W/m 7,1 km/h (2 Bft)
26.12.2013 16:00 0,6 C 97 % 998,4 hPa 0,6 l/m SW 0,00 h 0 W/m 7,6 km/h (2 Bft)
26.12.2013 17:00 0,7 C 98 % 1000,1 hPa 1,8 l/m SW 0,00 h 0 W/m 9,9 km/h (2 Bft)
26.12.2013 18:00 0,9 C 98 % 1001,5 hPa 0,8 l/m SW 0,00 h 0 W/m 11,6 km/h (2 Bft)
26.12.2013 19:00 1,1 C 98 % 1003,0 hPa 0,2 l/m SW 0,00 h 0 W/m 10,1 km/h (2 Bft)
26.12.2013 20:00 1,3 C 98 % 1004,5 hPa 0,0 l/m SW 0,00 h 0 W/m 10,5 km/h (2 Bft)
26.12.2013 21:00 1,2 C 98 % 1005,6 hPa 0,0 l/m SW 0,00 h 0 W/m 7,4 km/h (2 Bft)
26.12.2013 22:00 1,1 C 98 % 1006,5 hPa 0,0 l/m SW 0,00 h 0 W/m 5,3 km/h (1 Bft)
26.12.2013 23:00 1,0 C 98 % 1007,4 hPa 0,0 l/m S-SW 0,00 h 0 W/m 6,8 km/h (2 Bft)
27.12.2013 00:00 1,2 C 98 % 1008,4 hPa 0,0 l/m S-SW 0,00 h 0 W/m 7,6 km/h (2 Bft)
27.12.2013 01:00 1,3 C 98 % 1008,8 hPa 0,0 l/m SW 0,00 h 0 W/m 6,8 km/h (2 Bft)
27.12.2013 02:00 1,3 C 98 % 1009,1 hPa 0,0 l/m N 0,00 h 0 W/m 1,7 km/h (1 Bft)
27.12.2013 03:00 1,0 C 98 % 1009,7 hPa 0,0 l/m SW 0,00 h 0 W/m 5,5 km/h (1 Bft)
27.12.2013 04:00 1,3 C 99 % 1010,0 hPa 0,0 l/m W 0,00 h 0 W/m 7,5 km/h (2 Bft)
27.12.2013 05:00 1,1 C 99 % 1010,3 hPa 0,0 l/m N 0,00 h 0 W/m 2,0 km/h (1 Bft)
27.12.2013 06:00 0,3 C 98 % 1010,4 hPa 0,0 l/m W 0,00 h 0 W/m 2,9 km/h (1 Bft)
27.12.2013 07:00 0,1 C 98 % 1010,3 hPa 0,0 l/m N 0,00 h 0 W/m 3,6 km/h (1 Bft)
27.12.2013 08:00 -0,1 C 98 % 1010,1 hPa 0,0 l/m N 0,00 h 14 W/m 1,9 km/h (1 Bft)
27.12.2013 09:00 -0,3 C 98 % 1010,1 hPa 0,0 l/m W 0,00 h 51 W/m 3,5 km/h (1 Bft)
27.12.2013 10:00 -0,1 C 99 % 1009,6 hPa 0,0 l/m W 0,25 h 126 W/m 4,0 km/h (1 Bft)
27.12.2013 11:00 1,6 C 99 % 1009,0 hPa 0,0 l/m W 1,00 h 295 W/m 5,8 km/h (1 Bft)
27.12.2013 12:00 3,6 C 96 % 1008,4 hPa 0,0 l/m S-SW 1,00 h 312 W/m 9,1 km/h (2 Bft)
27.12.2013 13:00 4,5 C 91 % 1008,4 hPa 0,0 l/m SW 1,00 h 281 W/m 8,6 km/h (2 Bft)
27.12.2013 14:00 4,8 C 90 % 1008,7 hPa 0,0 l/m S-SW 1,00 h 203 W/m 10,6 km/h (2 Bft)
27.12.2013 15:00 4,0 C 88 % 1008,9 hPa 0,0 l/m SW 0,83 h 87 W/m 12,1 km/h (2 Bft)
27.12.2013 16:00 2,4 C 92 % 1009,0 hPa 0,0 l/m SW 0,00 h 10 W/m 6,8 km/h (2 Bft)
27.12.2013 17:00 1,6 C 94 % 1008,8 hPa 0,0 l/m S-SW 0,00 h 0 W/m 3,9 km/h (1 Bft)
27.12.2013 18:00 1,2 C 95 % 1008,7 hPa 0,0 l/m S-SW 0,00 h 0 W/m 3,9 km/h (1 Bft)
27.12.2013 19:00 1,4 C 95 % 1008,8 hPa 0,0 l/m S-SW 0,00 h 0 W/m 8,7 km/h (2 Bft)
27.12.2013 20:00 1,5 C 93 % 1008,6 hPa 0,0 l/m SW 0,00 h 0 W/m 5,2 km/h (1 Bft)
27.12.2013 21:00 0,8 C 94 % 1008,7 hPa 0,0 l/m SW 0,00 h 0 W/m 2,7 km/h (1 Bft)
27.12.2013 22:00 0,4 C 94 % 1008,5 hPa 0,0 l/m S 0,00 h 0 W/m 3,8 km/h (1 Bft)
27.12.2013 23:00 -0,1 C 95 % 1008,1 hPa 0,0 l/m N 0,00 h 0 W/m 0,7 km/h (0 Bft)
28.12.2013 00:00 -0,4 C 95 % 1008,0 hPa 0,0 l/m N 0,00 h 0 W/m 1,0 km/h (0 Bft)
Min-Datum _ 24.12.13 25.12.13 26.12.13 - - - - 23.12.13
_ Min-Zeit 05:55 06:00 05:05 - - - - 16:10
Minimum _ -2,2 C 41 % 988,0 hPa - - - - 0,0 km/h (0 Bft)
Max-Datum _ 25.12.13 27.12.13 23.12.13 26.12.13 - 23.12.13 25.12.13 24.12.13
_ Max-Zeit 06:10 11:30 00:05 11:00 - 10:50 13:30 16:40
Maximum _ 14,1 C 100 % 1022,8 hPa 2,0 l/m - 0,08 h 362 W/m 46,7 km/h
SW (6 Bft)
Durchschnitt _ 4,6 C 85 % 1004,3 hPa #15,6 l/m SW #11:45 h 87 W/m 8,9 km/h (2 Bft)